Time;durP1;ratioP1;P1;durP2;ratioP2;P2;SDS_P1;SDS_P2;PMS_P1;PMS_P2;Temp;Humidity;BMP_temperature;BMP_pressure;BME280_temperature;BME280_humidity;BME280_pressure;Samples;Min_cycle;Max_cycle;Signal;HPM_P1;HPM_P2
2022/11/18 00:00:31;;;;;;;16.40;11.52;;;;;;;;;;5081904;28;20420;-78
2022/11/18 00:02:57;;;;;;;17.83;12.20;;;;;;;;;;5078328;28;20921;-79
2022/11/18 00:05:25;;;;;;;18.75;12.80;;;;;;;;;;5079928;28;20417;-78
2022/11/18 00:07:51;;;;;;;19.47;12.63;;;;;;;;;;5080777;28;20432;-78
2022/11/18 00:10:18;;;;;;;17.85;12.00;;;;;;;;;;5082092;28;20430;-78
2022/11/18 00:15:29;;;;;;;19.85;13.32;;;;;;;;;;5082957;28;20775;-79
2022/11/18 00:17:56;;;;;;;18.60;11.98;;;;;;;;;;5079167;28;20429;-80
2022/11/18 00:20:24;;;;;;;19.80;12.95;;;;;;;;;;5076629;28;20417;-78
2022/11/18 00:22:51;;;;;;;19.20;11.98;;;;;;;;;;5080176;28;20423;-78
2022/11/18 00:25:17;;;;;;;19.92;13.38;;;;;;;;;;5061919;28;20424;-78
2022/11/18 00:27:44;;;;;;;22.33;13.70;;;;;;;;;;5079847;28;20405;-80
2022/11/18 00:30:12;;;;;;;21.02;13.32;;;;;;;;;;5078487;28;20414;-80
2022/11/18 00:32:39;;;;;;;20.70;13.15;;;;;;;;;;5081316;28;20441;-80
2022/11/18 00:35:06;;;;;;;20.17;13.38;;;;;;;;;;5080997;28;20416;-80
2022/11/18 00:37:33;;;;;;;18.80;13.15;;;;;;;;;;5080085;28;20417;-80
2022/11/18 00:39:59;;;;;;;20.43;13.70;;;;;;;;;;5074712;28;20795;-80
2022/11/18 00:45:10;;;;;;;22.10;13.73;;;;;;;;;;5080515;28;20432;-80
2022/11/18 00:47:39;;;;;;;21.67;13.97;;;;;;;;;;5059690;28;20431;-80
2022/11/18 00:50:06;;;;;;;20.95;13.77;;;;;;;;;;5077570;28;20933;-80
2022/11/18 00:52:32;;;;;;;21.63;14.93;;;;;;;;;;5062242;28;20427;-80
2022/11/18 00:54:59;;;;;;;20.73;13.60;;;;;;;;;;5079479;28;20412;-80
2022/11/18 00:57:25;;;;;;;21.75;14.10;;;;;;;;;;5082712;28;20421;-80
2022/11/18 00:59:51;;;;;;;21.70;13.90;;;;;;;;;;5078948;28;20415;-80
2022/11/18 01:02:18;;;;;;;19.98;13.23;;;;;;;;;;5082344;28;20781;-80
2022/11/18 01:04:46;;;;;;;20.92;14.15;;;;;;;;;;5078555;28;20421;-80
2022/11/18 01:07:12;;;;;;;21.25;13.77;;;;;;;;;;5070510;28;20450;-80
2022/11/18 01:09:39;;;;;;;21.15;14.45;;;;;;;;;;5075631;28;20788;-78
2022/11/18 01:14:49;;;;;;;20.80;13.20;;;;;;;;;;5076183;28;20423;-79
2022/11/18 01:17:16;;;;;;;20.58;13.50;;;;;;;;;;5059866;28;20801;-80
2022/11/18 01:19:42;;;;;;;22.95;13.43;;;;;;;;;;5076247;28;20418;-80
2022/11/18 01:22:10;;;;;;;19.92;13.00;;;;;;;;;;5075570;28;20905;-78
2022/11/18 01:24:37;;;;;;;20.67;13.33;;;;;;;;;;5073553;28;20538;-80
2022/11/18 01:27:04;;;;;;;21.13;13.27;;;;;;;;;;5076705;28;20483;-80
2022/11/18 01:29:30;;;;;;;20.10;12.90;;;;;;;;;;5081881;28;20423;-80
2022/11/18 01:31:56;;;;;;;21.58;13.40;;;;;;;;;;5074084;28;20801;-79
2022/11/18 01:34:22;;;;;;;20.38;12.77;;;;;;;;;;5073132;28;20502;-79
2022/11/18 01:36:53;;;;;;;21.40;13.32;;;;;;;;;;5073013;28;20923;-79
2022/11/18 01:39:20;;;;;;;19.80;13.00;;;;;;;;;;5072756;28;20427;-79
2022/11/18 01:41:47;;;;;;;20.77;12.55;;;;;;;;;;5079043;28;20452;-79
2022/11/18 01:44:32;;;;;;;20.52;12.90;;;;;;;;;;5071064;28;20932;-79
2022/11/18 01:46:58;;;;;;;20.17;12.20;;;;;;;;;;5071666;28;20427;-79
2022/11/18 01:49:26;;;;;;;18.20;13.10;;;;;;;;;;5074397;28;20424;-79
2022/11/18 01:51:55;;;;;;;17.58;12.10;;;;;;;;;;5053583;28;20434;-79
2022/11/18 01:54:25;;;;;;;19.50;12.02;;;;;;;;;;5073702;28;20412;-79
2022/11/18 01:56:53;;;;;;;17.10;11.73;;;;;;;;;;5075712;28;20429;-79
2022/11/18 01:59:22;;;;;;;19.10;13.00;;;;;;;;;;5079767;28;20513;-79
2022/11/18 02:01:48;;;;;;;20.05;12.93;;;;;;;;;;5072742;28;20426;-79
2022/11/18 02:04:15;;;;;;;17.33;11.90;;;;;;;;;;5072859;28;20415;-79
2022/11/18 02:06:42;;;;;;;17.85;11.63;;;;;;;;;;5081884;28;20785;-79
2022/11/18 02:09:10;;;;;;;16.20;11.43;;;;;;;;;;5073017;28;20428;-80
2022/11/18 02:11:53;;;;;;;16.50;11.30;;;;;;;;;;5073043;28;20434;-79
2022/11/18 02:14:22;;;;;;;15.30;11.13;;;;;;;;;;5075496;28;21004;-80
2022/11/18 02:16:55;;;;;;;16.60;11.15;;;;;;;;;;5069624;28;20470;-80
2022/11/18 02:19:35;;;;;;;18.20;11.65;;;;;;;;;;5069652;28;20416;-79
2022/11/18 02:22:09;;;;;;;17.52;12.30;;;;;;;;;;5074311;28;20430;-80
2022/11/18 02:24:41;;;;;;;17.00;11.63;;;;;;;;;;5070380;28;20422;-79
2022/11/18 02:27:40;;;;;;;18.95;11.93;;;;;;;;;;5075596;28;20434;-79
2022/11/18 02:30:09;;;;;;;18.67;12.07;;;;;;;;;;5077223;28;20414;-79
2022/11/18 02:32:38;;;;;;;20.00;13.00;;;;;;;;;;5074140;28;20426;-79
2022/11/18 02:35:08;;;;;;;16.75;11.45;;;;;;;;;;5068303;28;20426;-79
2022/11/18 02:37:36;;;;;;;18.00;11.38;;;;;;;;;;5071077;28;20431;-79
2022/11/18 02:40:05;;;;;;;17.35;11.00;;;;;;;;;;5077361;28;20427;-80
2022/11/18 02:42:33;;;;;;;15.93;10.85;;;;;;;;;;5079802;28;20911;-79
2022/11/18 02:45:03;;;;;;;15.57;10.80;;;;;;;;;;5075280;28;20421;-79
2022/11/18 02:47:32;;;;;;;16.88;10.85;;;;;;;;;;5070998;28;20785;-79
2022/11/18 02:50:01;;;;;;;20.10;12.32;;;;;;;;;;5071691;28;20494;-79
2022/11/18 02:52:27;;;;;;;19.30;11.73;;;;;;;;;;5075209;28;20423;-79
2022/11/18 02:54:56;;;;;;;16.80;11.32;;;;;;;;;;5075273;28;20419;-79
2022/11/18 02:57:24;;;;;;;17.38;11.70;;;;;;;;;;5078219;28;20427;-79
2022/11/18 02:59:50;;;;;;;16.63;11.48;;;;;;;;;;5072954;28;20950;-79
2022/11/18 03:02:19;;;;;;;17.33;12.70;;;;;;;;;;5075180;28;20433;-79
2022/11/18 03:04:47;;;;;;;18.38;11.65;;;;;;;;;;5069268;28;20423;-79
2022/11/18 03:07:18;;;;;;;18.42;12.07;;;;;;;;;;5073967;28;20430;-79
2022/11/18 03:09:46;;;;;;;20.70;12.70;;;;;;;;;;5069566;28;20442;-79
2022/11/18 03:12:16;;;;;;;22.02;12.80;;;;;;;;;;5073799;28;20898;-79
2022/11/18 03:14:46;;;;;;;19.67;13.38;;;;;;;;;;5078554;28;20778;-79
2022/11/18 03:17:16;;;;;;;19.40;12.50;;;;;;;;;;5074172;28;20504;-79
2022/11/18 03:19:49;;;;;;;20.77;14.30;;;;;;;;;;5074821;28;20427;-80
2022/11/18 03:22:21;;;;;;;18.63;12.73;;;;;;;;;;5073347;28;20426;-79
2022/11/18 03:24:51;;;;;;;22.60;14.07;;;;;;;;;;5070065;28;20448;-79
2022/11/18 03:27:20;;;;;;;18.98;12.38;;;;;;;;;;5067405;28;20427;-79
2022/11/18 03:29:49;;;;;;;18.88;12.50;;;;;;;;;;5071357;28;20425;-79
2022/11/18 03:32:17;;;;;;;20.63;13.65;;;;;;;;;;5072477;28;20432;-79
2022/11/18 03:34:46;;;;;;;16.83;12.10;;;;;;;;;;5072290;28;20410;-79
2022/11/18 03:37:13;;;;;;;20.48;14.20;;;;;;;;;;5074921;28;20431;-79
2022/11/18 03:39:43;;;;;;;20.30;13.48;;;;;;;;;;5076599;28;20425;-79
2022/11/18 03:42:12;;;;;;;18.35;13.15;;;;;;;;;;5081808;28;20425;-79
2022/11/18 03:44:41;;;;;;;18.65;12.70;;;;;;;;;;5078015;28;20419;-79
2022/11/18 03:47:09;;;;;;;22.35;13.82;;;;;;;;;;5081162;28;20436;-79
2022/11/18 03:49:40;;;;;;;21.45;14.68;;;;;;;;;;5079211;28;20410;-79
2022/11/18 03:52:08;;;;;;;19.98;13.55;;;;;;;;;;5080613;28;20427;-79
2022/11/18 03:54:36;;;;;;;23.47;14.80;;;;;;;;;;5083130;28;20468;-79
2022/11/18 03:57:13;;;;;;;22.60;14.65;;;;;;;;;;5082291;28;20433;-79
2022/11/18 03:59:45;;;;;;;22.95;15.32;;;;;;;;;;5082853;28;20958;-79
2022/11/18 04:02:13;;;;;;;23.00;15.00;;;;;;;;;;5086526;28;20503;-79
2022/11/18 04:04:40;;;;;;;24.52;15.40;;;;;;;;;;5081097;28;20425;-79
2022/11/18 04:07:09;;;;;;;23.23;15.60;;;;;;;;;;5080463;28;20421;-79
2022/11/18 04:09:38;;;;;;;24.13;15.20;;;;;;;;;;5056735;28;20419;-79
2022/11/18 04:12:08;;;;;;;24.60;15.45;;;;;;;;;;5078370;28;20429;-79
2022/11/18 04:14:37;;;;;;;24.45;16.25;;;;;;;;;;5073621;28;20423;-79
2022/11/18 04:17:06;;;;;;;25.50;16.73;;;;;;;;;;5076440;28;20916;-79
2022/11/18 04:19:33;;;;;;;27.88;17.77;;;;;;;;;;5073324;28;20795;-79
2022/11/18 04:21:59;;;;;;;24.30;16.45;;;;;;;;;;5080210;28;20427;-79
2022/11/18 04:24:27;;;;;;;24.80;15.70;;;;;;;;;;5077571;28;20420;-79
2022/11/18 04:26:53;;;;;;;23.93;15.93;;;;;;;;;;5074398;28;20456;-79
2022/11/18 04:29:21;;;;;;;21.90;14.88;;;;;;;;;;5077230;28;21068;-79
2022/11/18 04:31:48;;;;;;;25.85;16.55;;;;;;;;;;5074803;28;20420;-79
2022/11/18 04:34:14;;;;;;;21.40;15.02;;;;;;;;;;5074023;28;20414;-79
2022/11/18 04:36:41;;;;;;;23.33;15.88;;;;;;;;;;5072525;28;20433;-79
2022/11/18 04:39:08;;;;;;;23.90;15.52;;;;;;;;;;5070885;28;20434;-79
2022/11/18 04:44:18;;;;;;;26.17;16.77;;;;;;;;;;5078588;28;20457;-79
2022/11/18 04:46:46;;;;;;;22.13;15.15;;;;;;;;;;5060677;28;20431;-79
2022/11/18 04:49:14;;;;;;;26.30;16.95;;;;;;;;;;5076097;28;20406;-79
2022/11/18 04:51:40;;;;;;;25.48;15.57;;;;;;;;;;5075178;28;20450;-79
2022/11/18 04:54:07;;;;;;;23.97;16.27;;;;;;;;;;5077216;28;20512;-79
2022/11/18 04:56:33;;;;;;;23.40;14.60;;;;;;;;;;5073366;28;20433;-79
2022/11/18 04:59:00;;;;;;;23.45;15.13;;;;;;;;;;5074839;28;20909;-79
2022/11/18 05:01:26;;;;;;;24.35;15.25;;;;;;;;;;5059951;28;20424;-79
2022/11/18 05:03:56;;;;;;;23.63;15.27;;;;;;;;;;5062331;28;20429;-79
2022/11/18 05:06:23;;;;;;;24.98;15.10;;;;;;;;;;5076358;28;20421;-79
2022/11/18 05:08:49;;;;;;;24.63;14.50;;;;;;;;;;5073019;28;20430;-80
2022/11/18 05:13:59;;;;;;;22.25;14.90;;;;;;;;;;5076147;28;20432;-79
2022/11/18 05:16:26;;;;;;;25.33;15.35;;;;;;;;;;5071308;28;20937;-79
2022/11/18 05:18:52;;;;;;;24.83;15.10;;;;;;;;;;5077597;28;20423;-79
2022/11/18 05:21:20;;;;;;;22.35;14.38;;;;;;;;;;5073572;28;20438;-79
2022/11/18 05:23:46;;;;;;;21.25;14.48;;;;;;;;;;5073695;28;20929;-79
2022/11/18 05:26:12;;;;;;;22.00;15.18;;;;;;;;;;5072346;28;20923;-79
2022/11/18 05:28:39;;;;;;;24.67;15.50;;;;;;;;;;5075650;28;20427;-79
2022/11/18 05:31:06;;;;;;;22.75;16.17;;;;;;;;;;5072422;28;20423;-79
2022/11/18 05:33:33;;;;;;;23.73;15.30;;;;;;;;;;5075172;28;20436;-79
2022/11/18 05:36:02;;;;;;;23.40;15.82;;;;;;;;;;5073071;28;20427;-79
2022/11/18 05:38:31;;;;;;;26.50;15.85;;;;;;;;;;5049057;28;20438;-79
2022/11/18 05:40:58;;;;;;;25.38;15.68;;;;;;;;;;5078447;28;20415;-79
2022/11/18 05:43:23;;;;;;;24.60;15.48;;;;;;;;;;5070756;28;20432;-79
2022/11/18 05:45:50;;;;;;;24.60;16.90;;;;;;;;;;5077266;28;20428;-79
2022/11/18 05:48:17;;;;;;;26.05;16.60;;;;;;;;;;5075059;28;20434;-79
2022/11/18 05:50:46;;;;;;;26.77;16.90;;;;;;;;;;5075384;28;20415;-79
2022/11/18 05:53:12;;;;;;;25.95;16.83;;;;;;;;;;5072304;28;20452;-79
2022/11/18 05:55:44;;;;;;;23.42;16.55;;;;;;;;;;5070354;28;20434;-79
2022/11/18 05:58:10;;;;;;;24.55;16.77;;;;;;;;;;5072049;28;20427;-79
2022/11/18 06:00:37;;;;;;;25.40;16.88;;;;;;;;;;5074736;28;20803;-79
2022/11/18 06:03:05;;;;;;;26.00;16.33;;;;;;;;;;5074092;28;20419;-79
2022/11/18 06:05:32;;;;;;;25.40;16.23;;;;;;;;;;5064483;28;20419;-79
2022/11/18 06:07:58;;;;;;;26.17;17.30;;;;;;;;;;5073132;28;20493;-79
2022/11/18 06:10:26;;;;;;;24.10;16.90;;;;;;;;;;5075366;28;20416;-79
2022/11/18 06:12:58;;;;;;;24.30;16.37;;;;;;;;;;5075263;28;20470;-79
2022/11/18 06:15:26;;;;;;;27.75;17.45;;;;;;;;;;5077538;28;20437;-79
2022/11/18 06:17:55;;;;;;;23.10;16.07;;;;;;;;;;5069461;28;20431;-80
2022/11/18 06:20:22;;;;;;;25.98;16.55;;;;;;;;;;5072522;28;20454;-79
2022/11/18 06:22:49;;;;;;;28.63;17.80;;;;;;;;;;5073512;28;20434;-79
2022/11/18 06:25:16;;;;;;;25.98;17.08;;;;;;;;;;5077037;28;20422;-79
2022/11/18 06:27:42;;;;;;;25.80;17.05;;;;;;;;;;5061978;28;20435;-80
2022/11/18 06:30:12;;;;;;;24.42;16.17;;;;;;;;;;5073620;28;20804;-80
2022/11/18 06:32:38;;;;;;;29.42;17.02;;;;;;;;;;5067555;28;20414;-79
2022/11/18 06:35:05;;;;;;;27.70;17.23;;;;;;;;;;5073450;28;20411;-79
2022/11/18 06:37:31;;;;;;;25.30;16.80;;;;;;;;;;5074994;28;20434;-79
2022/11/18 06:39:58;;;;;;;24.98;16.35;;;;;;;;;;5068083;28;20770;-79
2022/11/18 06:45:08;;;;;;;26.45;17.10;;;;;;;;;;5073053;28;20481;-79
2022/11/18 06:47:36;;;;;;;25.70;16.87;;;;;;;;;;5074179;28;20422;-79
2022/11/18 06:50:05;;;;;;;25.80;16.25;;;;;;;;;;5074507;28;20424;-79
2022/11/18 06:52:32;;;;;;;24.10;15.10;;;;;;;;;;5077852;28;20423;-79
2022/11/18 06:54:58;;;;;;;26.40;16.17;;;;;;;;;;5073566;28;20421;-79
2022/11/18 06:57:25;;;;;;;24.55;16.20;;;;;;;;;;5084133;28;20426;-79
2022/11/18 06:59:52;;;;;;;25.75;16.40;;;;;;;;;;5075278;28;20945;-79
2022/11/18 07:02:18;;;;;;;27.92;17.45;;;;;;;;;;5076720;28;20799;-79
2022/11/18 07:04:50;;;;;;;25.70;16.83;;;;;;;;;;5076428;28;20948;-79
2022/11/18 07:07:16;;;;;;;26.40;16.25;;;;;;;;;;5053380;28;20424;-79
2022/11/18 07:09:43;;;;;;;22.38;15.10;;;;;;;;;;5073760;28;20419;-79
2022/11/18 07:12:10;;;;;;;24.70;16.80;;;;;;;;;;5075624;28;20960;-78
2022/11/18 07:14:37;;;;;;;26.40;16.70;;;;;;;;;;5068573;28;21012;-78
2022/11/18 07:17:03;;;;;;;24.00;15.95;;;;;;;;;;5078978;28;20433;-78
2022/11/18 07:19:30;;;;;;;24.33;15.55;;;;;;;;;;5057923;28;20429;-78
2022/11/18 07:21:58;;;;;;;24.48;16.25;;;;;;;;;;5074859;28;20425;-78
2022/11/18 07:24:25;;;;;;;23.83;15.95;;;;;;;;;;5073695;28;20406;-78
2022/11/18 07:26:54;;;;;;;22.98;15.40;;;;;;;;;;5079138;28;20939;-78
2022/11/18 07:29:20;;;;;;;26.27;15.65;;;;;;;;;;5073400;28;20423;-78
2022/11/18 07:31:47;;;;;;;22.77;15.90;;;;;;;;;;5075764;28;20422;-78
2022/11/18 07:34:13;;;;;;;25.67;15.52;;;;;;;;;;5073228;28;20489;-78
2022/11/18 07:36:40;;;;;;;25.40;15.68;;;;;;;;;;5075135;28;20426;-78
2022/11/18 07:39:09;;;;;;;23.50;15.65;;;;;;;;;;5068363;28;20430;-78
2022/11/18 07:41:35;;;;;;;25.98;16.27;;;;;;;;;;5072283;28;20956;-79
2022/11/18 07:44:03;;;;;;;24.58;16.70;;;;;;;;;;5074326;28;20423;-78
2022/11/18 07:46:30;;;;;;;26.25;16.70;;;;;;;;;;5077689;28;20422;-78
2022/11/18 07:48:58;;;;;;;22.55;15.73;;;;;;;;;;5068648;28;20434;-78
2022/11/18 07:51:25;;;;;;;22.50;15.75;;;;;;;;;;5074823;28;20435;-78
2022/11/18 07:53:52;;;;;;;22.70;15.43;;;;;;;;;;5076726;28;20433;-78
2022/11/18 07:56:20;;;;;;;25.75;16.20;;;;;;;;;;5079581;28;20423;-78
2022/11/18 07:58:46;;;;;;;25.40;17.17;;;;;;;;;;5075609;28;20800;-78
2022/11/18 08:01:14;;;;;;;27.13;17.75;;;;;;;;;;5077500;28;20424;-78
2022/11/18 08:03:40;;;;;;;26.73;17.70;;;;;;;;;;5076585;28;20911;-78
2022/11/18 08:06:09;;;;;;;29.85;18.48;;;;;;;;;;5072618;28;20723;-78
2022/11/18 08:08:35;;;;;;;28.13;19.00;;;;;;;;;;5075824;28;20489;-78
2022/11/18 08:11:05;;;;;;;27.50;17.50;;;;;;;;;;5073902;28;20452;-78
2022/11/18 08:13:34;;;;;;;26.63;18.27;;;;;;;;;;5081455;28;20463;-78
2022/11/18 08:16:01;;;;;;;27.83;17.83;;;;;;;;;;5076459;28;20430;-78
2022/11/18 08:18:28;;;;;;;26.48;17.25;;;;;;;;;;5075876;28;20429;-78
2022/11/18 08:20:54;;;;;;;28.65;18.20;;;;;;;;;;5072333;28;20416;-78
2022/11/18 08:23:20;;;;;;;25.92;18.00;;;;;;;;;;5070933;28;20819;-79
2022/11/18 08:25:47;;;;;;;28.33;17.17;;;;;;;;;;5072674;28;20426;-78
2022/11/18 08:28:14;;;;;;;25.80;17.67;;;;;;;;;;5074012;28;20426;-79
2022/11/18 08:30:43;;;;;;;28.55;17.73;;;;;;;;;;5075299;28;20435;-78
2022/11/18 08:33:09;;;;;;;26.63;18.13;;;;;;;;;;5079320;28;20436;-79
2022/11/18 08:35:36;;;;;;;27.17;17.65;;;;;;;;;;5076940;28;20442;-78
2022/11/18 08:38:02;;;;;;;28.00;18.00;;;;;;;;;;5079405;28;20430;-78
2022/11/18 08:40:29;;;;;;;30.10;18.83;;;;;;;;;;5084772;28;20442;-79
2022/11/18 08:42:55;;;;;;;25.23;17.88;;;;;;;;;;5082819;28;20427;-79
2022/11/18 08:45:22;;;;;;;28.23;18.77;;;;;;;;;;5084634;28;20407;-80
2022/11/18 08:47:50;;;;;;;30.42;19.77;;;;;;;;;;5079287;28;20430;-79
2022/11/18 08:50:16;;;;;;;29.77;19.95;;;;;;;;;;5069512;28;20440;-79
2022/11/18 08:52:43;;;;;;;29.02;18.92;;;;;;;;;;5086408;28;20507;-79
2022/11/18 08:55:10;;;;;;;34.33;21.90;;;;;;;;;;5084064;28;20418;-79
2022/11/18 08:57:37;;;;;;;30.80;20.13;;;;;;;;;;5081463;28;20428;-79
2022/11/18 09:00:07;;;;;;;28.40;18.60;;;;;;;;;;5083180;28;20418;-79
2022/11/18 09:02:33;;;;;;;31.70;20.27;;;;;;;;;;5084176;28;20522;-79
2022/11/18 09:05:01;;;;;;;33.22;21.33;;;;;;;;;;5083200;28;20426;-79
2022/11/18 09:07:27;;;;;;;34.27;20.57;;;;;;;;;;5077069;28;20432;-79
2022/11/18 09:09:55;;;;;;;33.28;21.40;;;;;;;;;;5080187;28;20425;-79
2022/11/18 09:12:24;;;;;;;34.03;22.15;;;;;;;;;;5077308;28;20416;-79
2022/11/18 09:14:50;;;;;;;39.33;23.60;;;;;;;;;;5080814;28;20414;-79
2022/11/18 09:17:17;;;;;;;37.80;24.10;;;;;;;;;;5078557;28;20425;-79
2022/11/18 09:19:43;;;;;;;39.97;25.00;;;;;;;;;;5078540;28;20427;-78
2022/11/18 09:22:11;;;;;;;40.53;24.48;;;;;;;;;;5063871;28;20461;-78
2022/11/18 09:24:38;;;;;;;38.58;24.30;;;;;;;;;;5080111;28;20418;-79
2022/11/18 09:27:05;;;;;;;39.70;25.15;;;;;;;;;;5081512;28;20510;-78
2022/11/18 09:29:32;;;;;;;40.17;25.60;;;;;;;;;;5079876;28;20431;-78
2022/11/18 09:32:00;;;;;;;42.10;25.90;;;;;;;;;;5078532;28;20426;-78
2022/11/18 09:34:27;;;;;;;39.40;25.17;;;;;;;;;;5077063;28;20414;-78
2022/11/18 09:36:55;;;;;;;40.25;25.42;;;;;;;;;;5077861;28;21030;-79
2022/11/18 09:39:23;;;;;;;41.45;27.10;;;;;;;;;;5077836;28;20439;-78
2022/11/18 09:41:55;;;;;;;46.55;26.92;;;;;;;;;;5078835;28;20448;-81
2022/11/18 09:44:35;;;;;;;42.35;27.35;;;;;;;;;;5078252;28;20420;-79
2022/11/18 09:47:07;;;;;;;45.08;27.00;;;;;;;;;;5077844;28;20442;-79
2022/11/18 09:49:35;;;;;;;48.90;27.80;;;;;;;;;;5078910;28;20516;-78
2022/11/18 09:52:02;;;;;;;45.70;26.73;;;;;;;;;;5081141;28;20423;-78
2022/11/18 09:54:31;;;;;;;45.63;28.70;;;;;;;;;;5081708;28;20407;-78
2022/11/18 09:57:00;;;;;;;44.42;27.98;;;;;;;;;;5079893;28;20802;-78
2022/11/18 09:59:27;;;;;;;43.65;26.60;;;;;;;;;;5081801;28;20781;-79
2022/11/18 10:01:55;;;;;;;47.67;28.65;;;;;;;;;;5079038;28;20920;-78
2022/11/18 10:04:21;;;;;;;46.67;28.45;;;;;;;;;;5079790;28;20416;-78
2022/11/18 10:06:49;;;;;;;40.80;26.00;;;;;;;;;;5080632;28;20429;-78
2022/11/18 10:09:30;;;;;;;36.83;24.13;;;;;;;;;;5078224;28;20777;-78
2022/11/18 10:12:11;;;;;;;38.27;24.10;;;;;;;;;;5077567;28;20434;-78
2022/11/18 10:14:45;;;;;;;38.15;24.60;;;;;;;;;;5080804;28;20418;-79
2022/11/18 10:17:21;;;;;;;40.85;24.52;;;;;;;;;;5082273;28;20819;-79
2022/11/18 10:19:52;;;;;;;37.83;23.60;;;;;;;;;;5084311;28;20425;-78
2022/11/18 10:22:24;;;;;;;39.25;23.75;;;;;;;;;;5085297;28;20430;-79
2022/11/18 10:24:52;;;;;;;38.17;24.02;;;;;;;;;;5084248;28;20429;-79
2022/11/18 10:27:23;;;;;;;34.15;22.92;;;;;;;;;;5080306;28;20431;-79
2022/11/18 10:29:53;;;;;;;36.40;23.42;;;;;;;;;;5080235;28;20421;-79
2022/11/18 10:32:21;;;;;;;36.87;23.30;;;;;;;;;;5081321;28;20454;-79
2022/11/18 10:34:49;;;;;;;35.47;22.55;;;;;;;;;;5083734;28;20427;-79
2022/11/18 10:37:23;;;;;;;31.83;21.55;;;;;;;;;;5085521;28;20421;-80
2022/11/18 10:39:50;;;;;;;32.00;21.87;;;;;;;;;;5081751;28;20429;-79
2022/11/18 10:42:19;;;;;;;33.05;22.25;;;;;;;;;;5085052;28;20436;-79
2022/11/18 10:44:46;;;;;;;33.03;20.63;;;;;;;;;;5068653;28;20445;-78
2022/11/18 10:47:30;;;;;;;36.95;22.88;;;;;;;;;;5075147;28;20549;-79
2022/11/18 10:49:58;;;;;;;30.48;21.10;;;;;;;;;;5067864;28;20782;-77
2022/11/18 10:52:25;;;;;;;31.80;21.33;;;;;;;;;;5074013;28;20950;-79
2022/11/18 10:55:06;;;;;;;33.63;22.10;;;;;;;;;;5078328;28;20427;-79
2022/11/18 10:57:35;;;;;;;28.55;20.65;;;;;;;;;;5078209;28;20426;-79
2022/11/18 11:00:06;;;;;;;34.05;22.73;;;;;;;;;;5077180;28;20427;-78
2022/11/18 11:02:33;;;;;;;33.10;22.20;;;;;;;;;;5085836;28;20448;-79
2022/11/18 11:05:03;;;;;;;31.33;22.02;;;;;;;;;;5079284;28;20418;-78
2022/11/18 11:07:31;;;;;;;30.70;21.25;;;;;;;;;;5081560;28;20435;-79
2022/11/18 11:10:02;;;;;;;28.80;20.67;;;;;;;;;;5079532;28;20792;-78
2022/11/18 11:12:31;;;;;;;30.88;20.75;;;;;;;;;;5077098;28;20500;-78
2022/11/18 11:15:00;;;;;;;27.17;19.83;;;;;;;;;;5079840;28;20419;-78
2022/11/18 11:17:29;;;;;;;29.88;19.50;;;;;;;;;;5077823;28;20437;-79
2022/11/18 11:19:59;;;;;;;26.15;19.23;;;;;;;;;;5073029;28;21098;-79
2022/11/18 11:22:25;;;;;;;27.67;19.85;;;;;;;;;;5076551;28;20422;-79
2022/11/18 11:24:52;;;;;;;27.88;19.45;;;;;;;;;;5081304;28;20420;-78
2022/11/18 11:27:33;;;;;;;27.75;19.40;;;;;;;;;;5079585;28;20432;-79
2022/11/18 11:30:05;;;;;;;30.95;20.73;;;;;;;;;;5081708;28;20437;-79
2022/11/18 11:32:38;;;;;;;27.73;18.95;;;;;;;;;;5073158;28;20419;-78
2022/11/18 11:35:10;;;;;;;25.85;18.67;;;;;;;;;;5080372;28;20426;-78
2022/11/18 11:37:41;;;;;;;26.13;19.05;;;;;;;;;;5083422;28;20431;-80
2022/11/18 11:40:18;;;;;;;25.55;18.70;;;;;;;;;;5083955;28;20406;-78
2022/11/18 11:42:51;;;;;;;28.55;20.05;;;;;;;;;;5083973;28;21063;-79
2022/11/18 11:45:24;;;;;;;25.10;18.60;;;;;;;;;;5080176;28;20456;-79
2022/11/18 11:48:02;;;;;;;24.55;17.70;;;;;;;;;;5078458;28;20503;-79
2022/11/18 11:50:52;;;;;;;23.58;17.08;;;;;;;;;;5077768;28;20426;-78
2022/11/18 11:53:24;;;;;;;25.38;17.95;;;;;;;;;;5082988;28;20429;-79
2022/11/18 11:55:55;;;;;;;23.70;17.90;;;;;;;;;;5079816;28;20497;-79
2022/11/18 11:58:26;;;;;;;22.88;17.17;;;;;;;;;;5077751;28;20431;-78
2022/11/18 12:00:57;;;;;;;25.80;18.20;;;;;;;;;;5077858;28;20431;-78
2022/11/18 12:03:35;;;;;;;24.15;17.23;;;;;;;;;;5073822;28;20430;-78
2022/11/18 12:06:02;;;;;;;26.30;18.98;;;;;;;;;;5059016;28;20425;-78
2022/11/18 12:08:30;;;;;;;25.13;18.70;;;;;;;;;;5079961;28;20762;-79
2022/11/18 12:11:00;;;;;;;25.60;18.77;;;;;;;;;;5078417;28;20426;-78
2022/11/18 12:13:35;;;;;;;24.40;18.30;;;;;;;;;;5081731;28;20421;-78
2022/11/18 12:16:06;;;;;;;25.87;19.03;;;;;;;;;;5070827;28;20434;-78
2022/11/18 12:18:36;;;;;;;25.83;18.15;;;;;;;;;;5080728;28;20426;-78
2022/11/18 12:21:03;;;;;;;26.30;18.13;;;;;;;;;;5070224;28;20435;-78
2022/11/18 12:23:29;;;;;;;27.58;18.50;;;;;;;;;;5080742;28;20424;-78
2022/11/18 12:26:01;;;;;;;27.10;19.77;;;;;;;;;;5079339;28;20932;-79
2022/11/18 12:28:30;;;;;;;28.33;19.65;;;;;;;;;;5076810;28;20436;-78
2022/11/18 12:31:15;;;;;;;27.95;19.40;;;;;;;;;;5076185;28;20426;-78
2022/11/18 12:33:44;;;;;;;26.50;19.00;;;;;;;;;;5080337;28;20428;-78
2022/11/18 12:36:10;;;;;;;28.75;20.10;;;;;;;;;;5078047;28;20429;-78
2022/11/18 12:38:36;;;;;;;27.75;21.33;;;;;;;;;;5079472;28;20426;-78
2022/11/18 12:43:45;;;;;;;30.38;21.45;;;;;;;;;;5075679;28;20428;-78
2022/11/18 12:44:03;;;;;;;31.13;21.00;;;;;;;;;;5065740;28;20418;-78
2022/11/18 12:46:57;;;;;;;27.70;19.75;;;;;;;;;;5071105;28;20426;-78
2022/11/18 12:49:42;;;;;;;30.60;20.88;;;;;;;;;;5034555;28;20434;-78
2022/11/18 12:52:37;;;;;;;28.33;20.00;;;;;;;;;;5083549;28;20423;-78
2022/11/18 12:55:11;;;;;;;29.90;21.33;;;;;;;;;;5076920;28;21017;-78
2022/11/18 12:57:40;;;;;;;30.48;21.50;;;;;;;;;;5078908;28;20427;-79
2022/11/18 13:00:16;;;;;;;28.98;21.05;;;;;;;;;;5074517;28;20424;-78
2022/11/18 13:02:50;;;;;;;30.83;22.30;;;;;;;;;;5081715;28;20427;-79
2022/11/18 13:05:19;;;;;;;33.10;22.40;;;;;;;;;;5076284;28;20470;-79
2022/11/18 13:10:36;;;;;;;32.90;22.70;;;;;;;;;;5077190;28;20801;-78
2022/11/18 13:13:02;;;;;;;31.00;22.33;;;;;;;;;;5081098;28;20467;-78
2022/11/18 13:18:15;;;;;;;31.75;23.23;;;;;;;;;;5072850;28;20469;-79
2022/11/18 13:20:42;;;;;;;31.55;22.15;;;;;;;;;;5073157;28;20418;-78
2022/11/18 13:26:15;;;;;;;31.67;22.67;;;;;;;;;;5077000;28;20505;-79
2022/11/18 13:28:45;;;;;;;34.10;23.70;;;;;;;;;;5077418;28;20442;-79
2022/11/18 13:31:15;;;;;;;31.08;22.25;;;;;;;;;;5076905;28;20812;-78
2022/11/18 13:33:42;;;;;;;32.25;22.10;;;;;;;;;;5071301;28;20429;-78
2022/11/18 13:36:15;;;;;;;31.33;22.55;;;;;;;;;;5073811;28;20429;-78
2022/11/18 13:38:54;;;;;;;31.42;22.75;;;;;;;;;;5076751;28;20434;-78
2022/11/18 13:41:23;;;;;;;30.10;22.00;;;;;;;;;;5078814;28;20467;-78
2022/11/18 13:43:53;;;;;;;31.42;22.50;;;;;;;;;;5075124;28;20518;-79
2022/11/18 13:46:21;;;;;;;29.20;21.48;;;;;;;;;;5075262;28;20495;-78
2022/11/18 13:48:50;;;;;;;32.60;23.15;;;;;;;;;;5074617;28;20439;-78
2022/11/18 13:51:17;;;;;;;32.75;22.15;;;;;;;;;;5075772;28;20501;-78
2022/11/18 13:53:46;;;;;;;33.00;22.95;;;;;;;;;;5077594;28;20435;-78
2022/11/18 13:56:17;;;;;;;30.38;21.40;;;;;;;;;;5075632;28;20951;-78
2022/11/18 13:58:44;;;;;;;31.73;22.20;;;;;;;;;;5074464;28;20425;-78
2022/11/18 14:01:17;;;;;;;31.13;23.47;;;;;;;;;;5076576;28;20422;-78
2022/11/18 14:03:48;;;;;;;35.10;24.38;;;;;;;;;;5072970;28;20953;-78
2022/11/18 14:06:24;;;;;;;32.38;22.90;;;;;;;;;;5071754;28;21461;-78
2022/11/18 14:09:03;;;;;;;35.28;23.58;;;;;;;;;;5074520;28;20813;-78
2022/11/18 14:11:34;;;;;;;32.75;24.40;;;;;;;;;;5073778;28;20435;-78
2022/11/18 14:14:02;;;;;;;38.50;25.70;;;;;;;;;;5073454;28;20465;-79
2022/11/18 14:16:34;;;;;;;34.78;23.92;;;;;;;;;;5076506;28;20431;-78
2022/11/18 14:19:01;;;;;;;34.47;24.83;;;;;;;;;;5072565;28;20435;-78
2022/11/18 14:21:28;;;;;;;36.08;24.45;;;;;;;;;;5082345;28;20431;-78
2022/11/18 14:23:55;;;;;;;35.53;24.23;;;;;;;;;;5070271;28;20798;-78
2022/11/18 14:26:27;;;;;;;36.20;24.45;;;;;;;;;;5072546;28;20808;-78
2022/11/18 14:28:56;;;;;;;35.47;24.52;;;;;;;;;;5071419;28;20438;-78
2022/11/18 14:31:25;;;;;;;32.28;23.25;;;;;;;;;;5071290;28;20454;-78
2022/11/18 14:34:04;;;;;;;35.60;24.45;;;;;;;;;;5075412;28;20427;-78
2022/11/18 14:36:31;;;;;;;35.28;23.30;;;;;;;;;;5071528;28;20428;-78
2022/11/18 14:38:59;;;;;;;33.20;23.55;;;;;;;;;;5073375;28;20518;-78
2022/11/18 14:44:07;;;;;;;33.33;23.13;;;;;;;;;;5066991;28;20522;-78
2022/11/18 14:46:34;;;;;;;28.65;21.67;;;;;;;;;;5066007;28;20463;-79
2022/11/18 14:49:03;;;;;;;29.70;21.65;;;;;;;;;;5074448;28;20426;-78
2022/11/18 14:51:29;;;;;;;29.70;21.10;;;;;;;;;;5077337;28;20431;-78
2022/11/18 14:53:56;;;;;;;30.00;22.05;;;;;;;;;;5073408;28;20442;-78